createdAt,value
2023-03-25T00:01:17.173Z,17.67
2023-03-25T00:03:51.132Z,15.20
2023-03-25T00:06:18.710Z,19.27
2023-03-25T00:08:46.158Z,20.75
2023-03-25T00:11:13.060Z,15.55
2023-03-25T00:13:41.283Z,12.55
2023-03-25T00:16:10.456Z,16.13
2023-03-25T00:18:38.066Z,13.10
2023-03-25T00:21:11.027Z,18.25
2023-03-25T00:23:40.254Z,14.82
2023-03-25T00:26:08.395Z,14.82
2023-03-25T00:28:37.804Z,22.25
2023-03-25T00:31:12.582Z,16.30
2023-03-25T00:33:41.977Z,16.90
2023-03-25T00:36:10.009Z,13.30
2023-03-25T00:38:38.213Z,14.27
2023-03-25T00:41:25.784Z,14.13
2023-03-25T00:43:56.190Z,11.30
2023-03-25T00:46:26.930Z,14.35
2023-03-25T00:48:54.247Z,12.40
2023-03-25T00:51:22.951Z,19.75
2023-03-25T00:54:00.537Z,17.98
2023-03-25T00:56:28.455Z,13.32
2023-03-25T00:58:56.779Z,12.40
2023-03-25T01:01:27.647Z,13.00
2023-03-25T01:04:00.443Z,15.40
2023-03-25T01:06:36.058Z,19.20
2023-03-25T01:09:06.686Z,13.20
2023-03-25T01:11:35.241Z,15.13
2023-03-25T01:14:05.273Z,16.85
2023-03-25T01:16:32.607Z,10.30
2023-03-25T01:18:59.554Z,19.83
2023-03-25T01:21:26.812Z,13.23
2023-03-25T01:23:53.846Z,23.92
2023-03-25T01:26:21.090Z,14.07
2023-03-25T01:28:48.066Z,14.60
2023-03-25T01:31:16.591Z,10.32
2023-03-25T01:33:43.850Z,14.95
2023-03-25T01:36:13.369Z,14.15
2023-03-25T01:38:41.788Z,17.08
2023-03-25T01:41:10.323Z,10.05
2023-03-25T01:43:37.457Z,11.85
2023-03-25T01:46:04.534Z,10.98
2023-03-25T01:48:41.111Z,8.50
2023-03-25T01:51:18.561Z,5.95
2023-03-25T01:53:46.022Z,10.13
2023-03-25T01:56:19.048Z,7.15
2023-03-25T01:58:46.113Z,9.35
2023-03-25T02:01:14.591Z,9.18
2023-03-25T02:03:46.747Z,10.38
2023-03-25T02:06:23.052Z,9.38
2023-03-25T02:08:53.081Z,9.38
2023-03-25T02:11:20.036Z,9.30
2023-03-25T02:13:47.174Z,7.03
2023-03-25T02:16:51.950Z,9.85
2023-03-25T02:20:16.410Z,8.20
2023-03-25T02:22:47.901Z,10.18
2023-03-25T02:25:50.250Z,9.30
2023-03-25T02:28:47.495Z,11.63
2023-03-25T02:31:39.241Z,9.90
2023-03-25T02:34:30.183Z,7.07
2023-03-25T02:37:34.628Z,10.70
2023-03-25T02:40:16.829Z,8.52
2023-03-25T02:42:53.774Z,13.55
2023-03-25T02:45:32.657Z,13.20
2023-03-25T02:48:06.758Z,12.40
2023-03-25T02:50:41.944Z,14.18
2023-03-25T02:53:15.947Z,10.07
2023-03-25T02:55:45.680Z,12.20
2023-03-25T02:58:18.302Z,12.40
2023-03-25T03:00:46.524Z,13.20
2023-03-25T03:03:13.727Z,14.10
2023-03-25T03:05:45.200Z,13.55
2023-03-25T03:08:52.224Z,6.88
2023-03-25T03:11:51.861Z,7.78
2023-03-25T03:14:43.364Z,8.57
2023-03-25T03:17:44.612Z,8.95
2023-03-25T03:20:20.540Z,13.07
2023-03-25T03:23:03.030Z,12.60
2023-03-25T03:25:49.751Z,11.00
2023-03-25T03:28:48.259Z,12.90
2023-03-25T03:31:48.722Z,11.15
2023-03-25T03:34:47.335Z,8.25
2023-03-25T03:37:19.984Z,7.75
2023-03-25T03:39:49.443Z,11.02
2023-03-25T03:42:26.367Z,12.18
2023-03-25T03:45:02.075Z,10.85
2023-03-25T03:47:35.699Z,13.32
2023-03-25T03:50:15.673Z,12.93
2023-03-25T03:53:22.899Z,10.80
2023-03-25T03:56:22.559Z,11.95
2023-03-25T03:58:58.719Z,13.70
2023-03-25T04:02:01.114Z,17.13
2023-03-25T04:04:28.544Z,10.55
2023-03-25T04:07:18.768Z,12.73
2023-03-25T04:10:03.069Z,15.75
2023-03-25T04:12:38.669Z,19.95
2023-03-25T04:15:07.432Z,17.20
2023-03-25T04:17:35.089Z,8.43
2023-03-25T04:20:09.237Z,11.18
2023-03-25T04:22:38.864Z,11.13
2023-03-25T04:25:07.543Z,13.55
2023-03-25T04:27:38.031Z,14.05
2023-03-25T04:30:09.488Z,13.15
2023-03-25T04:32:36.513Z,11.85
2023-03-25T04:35:03.927Z,11.27
2023-03-25T04:37:34.423Z,10.30
2023-03-25T04:40:01.450Z,9.45
2023-03-25T04:42:33.339Z,9.32
2023-03-25T04:45:00.697Z,12.60
2023-03-25T04:47:28.300Z,13.63
2023-03-25T04:49:55.281Z,12.90
2023-03-25T04:52:22.608Z,7.55
2023-03-25T04:54:49.526Z,8.63
2023-03-25T04:57:16.899Z,12.27
2023-03-25T04:59:44.267Z,10.18
2023-03-25T05:02:13.789Z,11.98
2023-03-25T05:04:47.930Z,8.55
2023-03-25T05:07:16.772Z,8.43
2023-03-25T05:09:43.943Z,15.52
2023-03-25T05:12:11.718Z,16.30
2023-03-25T05:14:39.075Z,8.82
2023-03-25T05:17:06.041Z,13.63
2023-03-25T05:19:35.404Z,13.70
2023-03-25T05:22:04.846Z,12.45
2023-03-25T05:24:31.891Z,12.98
2023-03-25T05:27:02.697Z,14.07
2023-03-25T05:29:34.283Z,13.40
2023-03-25T05:32:01.329Z,12.40
2023-03-25T05:34:30.360Z,13.98
2023-03-25T05:36:57.628Z,10.70
2023-03-25T05:39:24.649Z,13.43
2023-03-25T05:41:55.865Z,12.10
2023-03-25T05:44:23.103Z,12.68
2023-03-25T05:46:50.000Z,14.43
2023-03-25T05:49:17.331Z,14.23
2023-03-25T05:51:45.295Z,16.80
2023-03-25T05:54:12.325Z,12.07
2023-03-25T05:56:40.238Z,10.25
2023-03-25T05:59:08.639Z,11.20
2023-03-25T06:01:38.026Z,11.20
2023-03-25T06:04:05.555Z,7.05
2023-03-25T06:06:34.580Z,9.13
2023-03-25T06:09:03.043Z,10.00
2023-03-25T06:11:30.427Z,8.80
2023-03-25T06:13:57.620Z,11.90
2023-03-25T06:16:30.302Z,9.02
2023-03-25T06:19:01.714Z,9.70
2023-03-25T06:21:33.346Z,7.88
2023-03-25T06:24:04.455Z,10.43
2023-03-25T06:26:33.029Z,10.70
2023-03-25T06:29:00.164Z,10.70
2023-03-25T06:31:27.698Z,10.30
2023-03-25T06:33:56.478Z,18.48
2023-03-25T06:36:25.783Z,16.13
2023-03-25T06:38:53.883Z,11.15
2023-03-25T06:41:22.067Z,9.25
2023-03-25T06:43:49.861Z,17.38
2023-03-25T06:46:17.107Z,15.48
2023-03-25T06:48:44.296Z,9.98
2023-03-25T06:51:11.290Z,14.32
2023-03-25T06:53:38.540Z,11.55
2023-03-25T06:56:06.549Z,10.07
2023-03-25T06:58:36.186Z,9.23
2023-03-25T07:01:07.821Z,11.23
2023-03-25T07:03:37.072Z,11.32
2023-03-25T07:06:06.036Z,13.45
2023-03-25T07:08:34.015Z,17.83
2023-03-25T07:11:07.635Z,14.13
2023-03-25T07:13:35.920Z,11.88
2023-03-25T07:16:03.473Z,9.45
2023-03-25T07:18:31.106Z,10.30
2023-03-25T07:20:59.016Z,11.48
2023-03-25T07:23:26.372Z,9.15
2023-03-25T07:25:53.684Z,8.85
2023-03-25T07:28:20.931Z,9.43
2023-03-25T07:30:48.033Z,6.53
2023-03-25T07:33:15.662Z,8.63
2023-03-25T07:35:42.624Z,6.97
2023-03-25T07:38:10.269Z,5.85
2023-03-25T07:40:37.942Z,7.35
2023-03-25T07:43:05.495Z,7.28
2023-03-25T07:45:43.979Z,5.75
2023-03-25T07:48:19.451Z,4.93
2023-03-25T07:50:46.460Z,9.80
2023-03-25T07:53:13.380Z,6.55
2023-03-25T07:55:40.418Z,7.72
2023-03-25T07:58:07.574Z,6.43
2023-03-25T08:00:34.560Z,6.80
2023-03-25T08:03:01.718Z,5.43
2023-03-25T08:05:29.152Z,6.93
2023-03-25T08:07:56.195Z,6.68
2023-03-25T08:10:23.401Z,5.65
2023-03-25T08:12:53.638Z,7.60
2023-03-25T08:15:24.672Z,7.22
2023-03-25T08:17:52.676Z,7.30
2023-03-25T08:20:19.960Z,7.90
2023-03-25T08:22:47.691Z,7.38
2023-03-25T08:25:14.894Z,3.78
2023-03-25T08:27:42.089Z,5.90
2023-03-25T08:30:10.628Z,7.20
2023-03-25T08:32:39.171Z,8.18
2023-03-25T08:35:07.309Z,4.60
2023-03-25T08:37:38.054Z,6.55
2023-03-25T08:40:10.238Z,9.45
2023-03-25T08:42:38.577Z,7.22
2023-03-25T08:45:09.364Z,10.60
2023-03-25T08:47:36.414Z,10.70
2023-03-25T08:50:04.231Z,6.25
2023-03-25T08:52:31.546Z,7.82
2023-03-25T08:54:58.489Z,6.32
2023-03-25T08:57:26.162Z,7.45
2023-03-25T08:59:53.321Z,8.77
2023-03-25T09:02:20.737Z,3.70
2023-03-25T09:04:50.860Z,7.32
2023-03-25T09:07:20.095Z,7.70
2023-03-25T09:09:47.370Z,8.73
2023-03-25T09:12:14.383Z,8.57
2023-03-25T09:14:41.391Z,5.55
2023-03-25T09:17:10.319Z,7.97
2023-03-25T09:19:38.363Z,5.15
2023-03-25T09:22:06.638Z,8.10
2023-03-25T09:24:34.487Z,7.53
2023-03-25T09:27:02.925Z,9.15
2023-03-25T09:29:30.000Z,8.73
2023-03-25T09:31:58.588Z,6.97
2023-03-25T09:34:27.249Z,4.72
2023-03-25T09:36:55.632Z,4.35
2023-03-25T09:39:22.848Z,6.07
2023-03-25T09:42:14.369Z,5.18
2023-03-25T09:44:56.769Z,4.05
2023-03-25T09:47:26.170Z,4.72
2023-03-25T09:50:01.322Z,6.35
2023-03-25T09:52:37.135Z,8.43
2023-03-25T09:55:11.782Z,6.47
2023-03-25T09:57:49.358Z,3.90
2023-03-25T10:00:24.906Z,6.65
2023-03-25T10:03:22.204Z,6.68
2023-03-25T10:06:06.748Z,7.15
2023-03-25T10:08:53.088Z,6.07
2023-03-25T10:11:26.033Z,6.30
2023-03-25T10:14:24.742Z,4.53
2023-03-25T10:17:16.117Z,7.45
2023-03-25T10:20:11.814Z,2.58
2023-03-25T10:23:03.124Z,3.92
2023-03-25T10:25:35.128Z,5.68
2023-03-25T10:28:03.695Z,3.83
2023-03-25T10:30:44.462Z,3.33
2023-03-25T10:33:31.792Z,7.00
2023-03-25T10:36:02.065Z,4.72
2023-03-25T10:38:32.577Z,7.85
2023-03-25T10:41:31.698Z,5.15
2023-03-25T10:43:58.756Z,4.45
2023-03-25T10:46:37.592Z,4.45
2023-03-25T10:49:04.812Z,6.70
2023-03-25T10:51:36.468Z,4.53
2023-03-25T10:54:04.420Z,4.78
2023-03-25T10:56:52.280Z,5.45
2023-03-25T10:59:37.816Z,3.65
2023-03-25T11:04:49.203Z,5.88
2023-03-25T11:07:22.627Z,4.05
2023-03-25T11:09:52.004Z,7.80
2023-03-25T11:12:33.277Z,3.88
2023-03-25T11:15:06.996Z,4.47
2023-03-25T11:17:34.707Z,6.75
2023-03-25T11:20:11.285Z,6.95
2023-03-25T11:22:39.096Z,5.20
2023-03-25T11:25:30.198Z,4.63
2023-03-25T11:28:02.812Z,3.85
2023-03-25T11:30:29.746Z,5.63
2023-03-25T11:33:13.361Z,3.88
2023-03-25T11:35:46.960Z,4.28
2023-03-25T11:38:23.432Z,8.27
2023-03-25T11:40:55.506Z,7.25
2023-03-25T11:43:25.975Z,4.60
2023-03-25T11:45:53.911Z,3.60
2023-03-25T11:48:24.638Z,5.30
2023-03-25T11:51:02.413Z,4.38
2023-03-25T11:53:32.965Z,5.18
2023-03-25T11:56:04.971Z,3.40
2023-03-25T11:58:37.264Z,6.15
2023-03-25T12:01:22.846Z,4.50
2023-03-25T12:03:49.887Z,5.63
2023-03-25T12:06:21.924Z,5.10
2023-03-25T12:08:59.619Z,4.55
2023-03-25T12:11:33.225Z,5.70
2023-03-25T12:14:40.170Z,4.53
2023-03-25T12:18:11.867Z,5.53
2023-03-25T12:21:20.451Z,5.13
2023-03-25T12:24:15.941Z,4.65
2023-03-25T12:26:51.980Z,2.72
2023-03-25T12:29:54.817Z,4.80
2023-03-25T12:32:42.045Z,4.32
2023-03-25T12:35:22.854Z,6.10
2023-03-25T12:38:24.571Z,4.50
2023-03-25T12:41:07.974Z,3.75
2023-03-25T12:43:59.287Z,5.43
2023-03-25T12:46:47.534Z,9.63
2023-03-25T12:49:43.060Z,5.57
2023-03-25T12:52:28.956Z,4.65
2023-03-25T12:55:23.750Z,5.50
2023-03-25T12:58:20.071Z,4.18
2023-03-25T13:01:30.467Z,4.90
2023-03-25T13:04:34.960Z,6.13
2023-03-25T13:07:17.363Z,4.15
2023-03-25T13:09:52.448Z,5.05
2023-03-25T13:15:37.508Z,5.25
2023-03-25T13:18:21.246Z,6.60
2023-03-25T13:21:00.518Z,6.10
2023-03-25T13:23:29.879Z,4.72
2023-03-25T13:26:06.688Z,4.75
2023-03-25T13:28:41.783Z,6.63
2023-03-25T13:33:49.312Z,2.65
2023-03-25T13:36:38.379Z,5.25
2023-03-25T13:39:19.452Z,4.22
2023-03-25T13:42:11.412Z,4.85
2023-03-25T13:44:41.790Z,2.92
2023-03-25T13:47:26.456Z,4.32
2023-03-25T13:50:02.983Z,4.00
2023-03-25T13:52:39.851Z,5.70
2023-03-25T13:55:22.359Z,5.28
2023-03-25T13:58:14.522Z,4.90
2023-03-25T14:01:02.405Z,6.40
2023-03-25T14:03:47.626Z,3.38
2023-03-25T14:07:21.477Z,7.60
2023-03-25T14:10:25.868Z,7.65
2023-03-25T14:13:49.371Z,3.90
2023-03-25T14:16:23.081Z,5.28
2023-03-25T14:19:00.840Z,6.68
2023-03-25T14:21:50.813Z,5.38
2023-03-25T14:24:32.302Z,9.20
2023-03-25T14:27:31.514Z,8.13
2023-03-25T14:30:06.371Z,4.90
2023-03-25T14:32:41.995Z,6.63
2023-03-25T14:35:34.599Z,6.22
2023-03-25T14:38:08.086Z,6.72
2023-03-25T14:40:59.501Z,10.43
2023-03-25T14:43:47.903Z,4.68
2023-03-25T14:46:22.102Z,4.97
2023-03-25T14:48:50.369Z,5.47
2023-03-25T14:51:26.492Z,4.50
2023-03-25T14:54:17.078Z,7.03
2023-03-25T14:57:04.616Z,5.47
2023-03-25T14:59:39.859Z,4.55
2023-03-25T15:02:29.892Z,5.13
2023-03-25T15:05:02.464Z,5.38
2023-03-25T15:07:50.729Z,6.72
2023-03-25T15:10:36.852Z,4.68
2023-03-25T15:13:09.516Z,7.25
2023-03-25T15:15:45.709Z,5.70
2023-03-25T15:18:36.488Z,3.55
2023-03-25T15:21:14.429Z,5.18
2023-03-25T15:23:52.108Z,4.55
2023-03-25T15:26:42.436Z,4.82
2023-03-25T15:29:27.612Z,8.18
2023-03-25T15:32:31.566Z,6.18
2023-03-25T15:35:32.507Z,7.03
2023-03-25T15:38:28.659Z,4.43
2023-03-25T15:41:56.156Z,4.90
2023-03-25T15:45:00.742Z,4.57
2023-03-25T15:47:43.031Z,3.53
2023-03-25T15:50:28.899Z,4.45
2023-03-25T15:53:41.896Z,6.35
2023-03-25T15:56:17.729Z,4.95
2023-03-25T15:59:05.881Z,5.45
2023-03-25T16:01:36.271Z,7.53
2023-03-25T16:04:34.987Z,6.80
2023-03-25T16:07:06.014Z,6.03
2023-03-25T16:09:39.207Z,5.55
2023-03-25T16:12:10.621Z,4.25
2023-03-25T16:14:39.581Z,6.07
2023-03-25T16:17:09.080Z,6.28
2023-03-25T16:19:45.961Z,6.85
2023-03-25T16:22:27.850Z,6.07
2023-03-25T16:24:58.144Z,4.72
2023-03-25T16:27:52.965Z,8.30
2023-03-25T16:30:24.847Z,5.40
2023-03-25T16:32:52.655Z,6.03
2023-03-25T16:35:27.342Z,5.82
2023-03-25T16:37:58.643Z,7.13
2023-03-25T16:40:33.796Z,6.18
2023-03-25T16:45:40.586Z,7.40
2023-03-25T16:48:19.980Z,8.60
2023-03-25T16:50:46.973Z,6.15
2023-03-25T16:53:16.748Z,3.88
2023-03-25T16:55:57.893Z,6.25
2023-03-25T16:58:28.069Z,5.07
2023-03-25T17:00:56.890Z,7.10
2023-03-25T17:03:48.724Z,4.68
2023-03-25T17:06:28.729Z,6.88
2023-03-25T17:08:59.167Z,7.63
2023-03-25T17:11:32.596Z,8.65
2023-03-25T17:14:08.803Z,6.78
2023-03-25T17:16:38.341Z,7.30
2023-03-25T17:19:05.557Z,7.10
2023-03-25T17:21:35.344Z,6.55
2023-03-25T17:24:20.884Z,7.90
2023-03-25T17:29:33.082Z,10.60
2023-03-25T17:32:00.446Z,7.75
2023-03-25T17:34:28.070Z,7.95
2023-03-25T17:37:01.426Z,8.77
2023-03-25T17:39:32.616Z,6.63
2023-03-25T17:42:07.325Z,7.32
2023-03-25T17:44:37.678Z,8.18
2023-03-25T17:47:06.429Z,8.18
2023-03-25T17:49:34.285Z,10.00
2023-03-25T17:52:01.544Z,6.00
2023-03-25T17:54:28.842Z,5.95
2023-03-25T17:56:56.608Z,6.75
2023-03-25T17:59:28.279Z,7.35
2023-03-25T18:01:55.331Z,10.48
2023-03-25T18:04:23.153Z,8.32
2023-03-25T18:06:51.741Z,4.90
2023-03-25T18:09:25.832Z,10.55
2023-03-25T18:11:56.566Z,9.68
2023-03-25T18:14:25.528Z,9.45
2023-03-25T18:16:57.772Z,7.90
2023-03-25T18:19:31.946Z,10.07
2023-03-25T18:22:09.811Z,10.87
2023-03-25T18:24:50.145Z,9.52
2023-03-25T18:27:17.945Z,8.80
2023-03-25T18:29:45.021Z,10.05
2023-03-25T18:32:12.023Z,8.50
2023-03-25T18:34:39.068Z,10.00
2023-03-25T18:37:05.953Z,14.98
2023-03-25T18:39:33.019Z,23.58
2023-03-25T18:42:00.323Z,15.52
2023-03-25T18:44:28.723Z,21.58
2023-03-25T18:46:55.889Z,26.77
2023-03-25T18:49:23.142Z,21.20
2023-03-25T18:51:51.102Z,21.67
2023-03-25T18:54:18.389Z,21.02
2023-03-25T18:56:46.105Z,23.85
2023-03-25T18:59:22.187Z,12.07
2023-03-25T19:01:49.134Z,16.30
2023-03-25T19:04:16.590Z,18.67
2023-03-25T19:06:44.234Z,13.43
2023-03-25T19:09:22.937Z,13.05
2023-03-25T19:11:49.958Z,14.40
2023-03-25T19:14:16.843Z,18.75
2023-03-25T19:16:57.296Z,16.77
2023-03-25T19:19:28.944Z,13.93
2023-03-25T19:21:55.869Z,14.73
2023-03-25T19:24:23.131Z,14.40
2023-03-25T19:26:50.064Z,15.80
2023-03-25T19:29:16.986Z,14.43
2023-03-25T19:31:44.303Z,16.98
2023-03-25T19:34:11.323Z,17.25
2023-03-25T19:36:38.317Z,24.73
2023-03-25T19:39:06.124Z,19.52
2023-03-25T19:41:35.251Z,16.15
2023-03-25T19:44:02.237Z,11.65
2023-03-25T19:46:31.972Z,14.75
2023-03-25T19:48:58.919Z,14.25
2023-03-25T19:51:25.817Z,17.33
2023-03-25T19:53:52.756Z,12.70
2023-03-25T19:56:19.614Z,13.27
2023-03-25T19:58:46.966Z,14.73
2023-03-25T20:01:13.932Z,12.88
2023-03-25T20:03:41.541Z,16.25
2023-03-25T20:06:09.350Z,20.67
2023-03-25T20:08:36.824Z,15.10
2023-03-25T20:11:12.378Z,20.27
2023-03-25T20:13:39.852Z,23.30
2023-03-25T20:16:07.756Z,19.27
2023-03-25T20:18:34.889Z,24.17
2023-03-25T20:21:01.826Z,13.55
2023-03-25T20:23:28.765Z,20.85
2023-03-25T20:25:55.701Z,14.23
2023-03-25T20:28:23.147Z,14.23
2023-03-25T20:30:50.257Z,16.08
2023-03-25T20:33:17.575Z,18.63
2023-03-25T20:35:45.338Z,13.55
2023-03-25T20:38:12.885Z,14.57
2023-03-25T20:40:44.707Z,18.23
2023-03-25T20:43:14.947Z,14.48
2023-03-25T20:45:43.293Z,15.50
2023-03-25T20:48:10.409Z,18.70
2023-03-25T20:50:37.444Z,19.73
2023-03-25T20:53:05.988Z,18.42
2023-03-25T20:55:33.217Z,21.15
2023-03-25T20:58:01.058Z,15.13
2023-03-25T21:00:28.112Z,14.20
2023-03-25T21:02:56.090Z,15.48
2023-03-25T21:05:23.394Z,15.13
2023-03-25T21:07:51.571Z,16.45
2023-03-25T21:10:20.518Z,17.10
2023-03-25T21:12:48.512Z,17.10
2023-03-25T21:15:16.058Z,15.23
2023-03-25T21:17:44.643Z,13.45
2023-03-25T21:20:12.735Z,13.98
2023-03-25T21:22:45.475Z,15.05
2023-03-25T21:25:15.077Z,15.48
2023-03-25T21:27:45.579Z,15.98
2023-03-25T21:30:13.768Z,17.95
2023-03-25T21:32:42.157Z,19.88
2023-03-25T21:35:09.895Z,17.15
2023-03-25T21:37:39.985Z,21.38
2023-03-25T21:40:11.187Z,19.98
2023-03-25T21:42:41.620Z,21.30
2023-03-25T21:45:11.942Z,21.95
2023-03-25T21:47:39.606Z,21.00
2023-03-25T21:50:10.621Z,27.10
2023-03-25T21:52:51.686Z,25.55
2023-03-25T21:55:19.889Z,24.90
2023-03-25T21:57:47.945Z,26.92
2023-03-25T22:00:18.470Z,31.60
2023-03-25T22:02:47.475Z,21.20
2023-03-25T22:05:16.887Z,24.35
2023-03-25T22:07:43.871Z,31.83
2023-03-25T22:10:11.640Z,33.28
2023-03-25T22:12:38.757Z,32.35
2023-03-25T22:15:06.750Z,33.50
2023-03-25T22:17:33.830Z,30.20
2023-03-25T22:20:00.799Z,33.13
2023-03-25T22:22:27.824Z,39.00
2023-03-25T22:24:54.770Z,41.05
2023-03-25T22:27:22.164Z,31.55
2023-03-25T22:29:49.134Z,36.50
2023-03-25T22:32:16.637Z,32.45
2023-03-25T22:34:43.596Z,24.23
2023-03-25T22:37:10.552Z,27.92
2023-03-25T22:39:39.208Z,37.25
2023-03-25T22:42:06.929Z,32.67
2023-03-25T22:44:34.133Z,28.70
2023-03-25T22:47:01.315Z,29.17
2023-03-25T22:49:28.503Z,27.33
2023-03-25T22:51:55.968Z,26.40
2023-03-25T22:54:23.340Z,25.50
2023-03-25T22:56:50.617Z,28.20
2023-03-25T22:59:17.554Z,20.80
2023-03-25T23:01:44.747Z,27.88
2023-03-25T23:04:11.858Z,24.80
2023-03-25T23:06:39.160Z,30.92
2023-03-25T23:09:08.710Z,25.38
2023-03-25T23:11:37.767Z,18.25
2023-03-25T23:14:09.110Z,24.85
2023-03-25T23:16:36.756Z,26.80
2023-03-25T23:19:06.403Z,21.85
2023-03-25T23:21:34.489Z,28.17
2023-03-25T23:24:04.172Z,26.77
2023-03-25T23:26:39.564Z,26.75
2023-03-25T23:29:11.854Z,22.55
2023-03-25T23:31:42.647Z,28.70
2023-03-25T23:34:15.663Z,22.80
2023-03-25T23:36:45.641Z,19.20
2023-03-25T23:39:20.550Z,27.25
2023-03-25T23:41:47.518Z,28.25
2023-03-25T23:44:14.542Z,30.00
2023-03-25T23:46:42.323Z,28.23
2023-03-25T23:49:10.950Z,25.88
2023-03-25T23:51:40.972Z,25.30
2023-03-25T23:54:11.761Z,23.83
2023-03-25T23:56:40.591Z,21.70
2023-03-25T23:59:07.902Z,24.52
